Time;durP1;ratioP1;P1;durP2;ratioP2;P2;SDS_P1;SDS_P2;PMS_P1;PMS_P2;Temp;Humidity;BMP_temperature;BMP_pressure;BME280_temperature;BME280_humidity;BME280_pressure;Samples;Min_cycle;Max_cycle;Signal;HPM_P1;HPM_P2
2022/03/12 00:00:46;;;;;;;;;;;;;;;17.10;34.13;101977.34;4941275;28;830;-50
2022/03/12 00:03:13;;;;;;;;;;;;;;;17.13;33.96;101976.00;4941901;29;722;-49
2022/03/12 00:05:40;;;;;;;;;;;;;;;16.48;35.09;101980.78;4939187;29;882;-49
2022/03/12 00:08:07;;;;;;;;;;;;;;;16.21;35.57;101979.41;4939120;29;847;-50
2022/03/12 00:10:33;;;;;;;;;;;;;;;16.49;35.21;101979.72;4939514;29;768;-49
2022/03/12 00:12:59;;;;;;;;;;;;;;;17.20;34.11;101973.94;4942822;29;854;-51
2022/03/12 00:15:24;;;;;;;;;;;;;;;16.88;34.57;101963.44;4939347;29;1963;-51
2022/03/12 00:17:50;;;;;;;;;;;;;;;16.34;35.55;101969.25;4942651;29;822;-49
2022/03/12 00:20:18;;;;;;;;;;;;;;;16.27;35.95;101968.56;4939330;29;843;-50
2022/03/12 00:22:47;;;;;;;;;;;;;;;18.46;31.92;101950.44;4939075;29;822;-50
2022/03/12 00:25:18;;;;;;;;;;;;;;;18.86;30.96;101958.56;4939792;29;851;-52
2022/03/12 00:27:46;;;;;;;;;;;;;;;19.71;29.47;101953.22;4938111;29;855;-51
2022/03/12 00:30:19;;;;;;;;;;;;;;;20.32;28.64;101962.97;4939360;29;901;-50
2022/03/12 00:32:45;;;;;;;;;;;;;;;18.90;30.53;101962.50;4940649;29;786;-49
2022/03/12 00:35:10;;;;;;;;;;;;;;;18.17;31.88;101962.75;4939297;29;1288;-49
2022/03/12 00:37:36;;;;;;;;;;;;;;;18.36;31.75;101958.59;4938894;29;1906;-48
2022/03/12 00:40:02;;;;;;;;;;;;;;;18.01;32.29;101948.78;4942385;29;750;-51
2022/03/12 00:42:28;;;;;;;;;;;;;;;17.58;33.43;101939.34;4939557;29;846;-49
2022/03/12 00:44:53;;;;;;;;;;;;;;;17.10;34.09;101939.69;4937240;29;1168;-51
2022/03/12 00:47:19;;;;;;;;;;;;;;;16.84;34.72;101943.03;4946108;29;945;-51
2022/03/12 00:49:45;;;;;;;;;;;;;;;17.62;33.26;101932.25;4938807;29;852;-48
2022/03/12 00:52:11;;;;;;;;;;;;;;;18.28;31.92;101923.25;4940767;29;863;-51
2022/03/12 00:54:36;;;;;;;;;;;;;;;17.47;33.45;101929.28;4942652;29;943;-47
2022/03/12 00:57:01;;;;;;;;;;;;;;;16.99;34.41;101924.09;4942396;29;1899;-51
2022/03/12 00:59:27;;;;;;;;;;;;;;;16.63;34.93;101917.94;4942520;29;854;-52
2022/03/12 01:01:52;;;;;;;;;;;;;;;16.58;35.09;101926.09;4947845;29;831;-51
2022/03/12 01:04:18;;;;;;;;;;;;;;;16.76;34.83;101914.06;4945331;29;831;-49
2022/03/12 01:06:43;;;;;;;;;;;;;;;17.29;34.02;101920.19;4942304;29;879;-45
2022/03/12 01:09:12;;;;;;;;;;;;;;;17.38;33.71;101924.19;4942270;29;859;-51
2022/03/12 01:11:38;;;;;;;;;;;;;;;16.71;34.81;101914.78;4940989;29;974;-51
2022/03/12 01:14:04;;;;;;;;;;;;;;;16.36;35.23;101917.69;4941674;29;839;-50
2022/03/12 01:16:33;;;;;;;;;;;;;;;16.31;35.28;101915.66;4951154;29;1910;-50
2022/03/12 01:18:58;;;;;;;;;;;;;;;16.79;34.68;101916.31;4942534;29;1411;-49
2022/03/12 01:21:24;;;;;;;;;;;;;;;17.30;33.79;101913.63;4942070;29;770;-51
2022/03/12 01:23:49;;;;;;;;;;;;;;;16.70;34.84;101913.13;4942347;29;943;-49
2022/03/12 01:26:16;;;;;;;;;;;;;;;16.40;35.31;101907.91;4941643;29;871;-52
2022/03/12 01:28:43;;;;;;;;;;;;;;;16.87;34.41;101909.56;4942606;29;823;-50
2022/03/12 01:31:08;;;;;;;;;;;;;;;19.02;30.62;101908.06;4945728;29;893;-51
2022/03/12 01:33:33;;;;;;;;;;;;;;;18.88;30.68;101906.84;4941965;29;998;-49
2022/03/12 01:35:59;;;;;;;;;;;;;;;19.96;29.11;101893.78;4941389;29;1907;-50
2022/03/12 01:38:45;;;;;;;;;;;;;;;20.77;27.84;101892.38;4941981;29;736;-51
2022/03/12 01:41:11;;;;;;;;;;;;;;;20.37;28.34;101899.47;4959871;29;1064;-51
2022/03/12 01:43:37;;;;;;;;;;;;;;;19.21;30.00;101904.88;4947722;29;780;-50
2022/03/12 01:46:02;;;;;;;;;;;;;;;18.22;31.93;101891.25;4946707;29;759;-50
2022/03/12 01:48:31;;;;;;;;;;;;;;;17.51;33.07;101900.19;4942553;28;795;-52
2022/03/12 01:50:56;;;;;;;;;;;;;;;17.14;34.01;101906.19;4944708;29;878;-48
2022/03/12 01:53:23;;;;;;;;;;;;;;;16.80;34.38;101900.66;4959787;29;770;-48
2022/03/12 01:55:49;;;;;;;;;;;;;;;16.48;35.01;101895.69;4948178;28;1906;-51
2022/03/12 01:58:16;;;;;;;;;;;;;;;17.39;33.59;101914.03;4941310;28;802;-51
2022/03/12 02:00:45;;;;;;;;;;;;;;;17.36;33.13;101889.78;4944354;29;893;-53
2022/03/12 02:03:11;;;;;;;;;;;;;;;16.84;34.21;101901.84;4942145;29;744;-48
2022/03/12 02:05:37;;;;;;;;;;;;;;;16.42;35.17;101900.25;4941346;29;795;-52
2022/03/12 02:08:03;;;;;;;;;;;;;;;16.33;35.15;101891.56;4946810;29;767;-51
2022/03/12 02:10:28;;;;;;;;;;;;;;;17.04;34.08;101901.38;4941198;29;875;-51
2022/03/12 02:12:54;;;;;;;;;;;;;;;17.04;33.85;101902.22;4941038;29;854;-52
2022/03/12 02:15:20;;;;;;;;;;;;;;;16.62;34.54;101905.31;4940928;29;961;-52
2022/03/12 02:17:46;;;;;;;;;;;;;;;16.48;35.03;101909.41;4943068;28;1906;-54
2022/03/12 02:20:13;;;;;;;;;;;;;;;18.70;31.02;101911.59;4943524;29;786;-53
2022/03/12 02:22:39;;;;;;;;;;;;;;;19.37;29.59;101916.88;4939056;29;1392;-52
2022/03/12 02:25:04;;;;;;;;;;;;;;;19.96;28.82;101915.88;4941287;29;782;-52
2022/03/12 02:27:31;;;;;;;;;;;;;;;20.73;27.70;101916.13;4941333;29;909;-51
2022/03/12 02:30:00;;;;;;;;;;;;;;;19.96;28.70;101915.88;4940566;29;974;-53
2022/03/12 02:32:26;;;;;;;;;;;;;;;18.51;31.00;101922.16;4949690;29;1508;-52
2022/03/12 02:34:51;;;;;;;;;;;;;;;17.97;31.78;101927.56;4943957;28;995;-50
2022/03/12 02:37:32;;;;;;;;;;;;;;;17.47;32.91;101918.28;4940677;29;1914;-51
2022/03/12 02:39:59;;;;;;;;;;;;;;;16.90;33.85;101922.84;4941100;29;762;-53
2022/03/12 02:42:25;;;;;;;;;;;;;;;16.68;34.46;101931.78;4940950;29;790;-50
2022/03/12 02:44:50;;;;;;;;;;;;;;;16.64;34.38;101930.59;4939024;29;862;-51
2022/03/12 02:47:17;;;;;;;;;;;;;;;16.75;34.24;101935.19;4948400;29;894;-51
2022/03/12 02:49:46;;;;;;;;;;;;;;;17.11;33.58;101929.53;4940082;29;846;-52
2022/03/12 02:52:13;;;;;;;;;;;;;;;17.37;32.93;101944.53;4939861;29;858;-51
2022/03/12 02:54:41;;;;;;;;;;;;;;;16.94;33.83;101946.00;4940079;29;859;-45
2022/03/12 02:57:06;;;;;;;;;;;;;;;16.50;34.55;101940.22;4943403;29;1910;-50
2022/03/12 02:59:33;;;;;;;;;;;;;;;16.43;34.62;101935.69;4945281;28;912;-47
2022/03/12 03:02:02;;;;;;;;;;;;;;;16.67;34.39;101929.28;4944455;29;847;-50
2022/03/12 03:04:31;;;;;;;;;;;;;;;17.08;33.73;101935.50;4939985;29;1441;-49
2022/03/12 03:06:59;;;;;;;;;;;;;;;16.99;33.62;101932.34;4940157;29;762;-50
2022/03/12 03:09:24;;;;;;;;;;;;;;;16.77;34.11;101934.94;4939934;29;882;-48
2022/03/12 03:11:50;;;;;;;;;;;;;;;16.71;34.31;101939.50;4941799;28;834;-52
2022/03/12 03:14:18;;;;;;;;;;;;;;;16.86;33.97;101938.16;4939235;29;787;-52
2022/03/12 03:16:47;;;;;;;;;;;;;;;17.22;33.22;101925.03;4941796;29;1979;-47
2022/03/12 03:19:15;;;;;;;;;;;;;;;16.99;33.82;101932.34;4940207;29;787;-48
2022/03/12 03:21:40;;;;;;;;;;;;;;;16.34;34.78;101928.06;4939664;29;810;-45
2022/03/12 03:24:06;;;;;;;;;;;;;;;16.30;34.79;101930.50;4944758;29;769;-49
2022/03/12 03:26:37;;;;;;;;;;;;;;;17.84;32.38;101926.81;4939613;29;885;-50
2022/03/12 03:29:03;;;;;;;;;;;;;;;19.30;29.68;101925.38;4939720;29;881;-48
2022/03/12 03:31:29;;;;;;;;;;;;;;;19.15;30.14;101926.06;4945893;29;810;-47
2022/03/12 03:33:54;;;;;;;;;;;;;;;20.15;28.20;101927.28;4939281;29;1039;-47
2022/03/12 03:36:20;;;;;;;;;;;;;;;19.08;30.02;101918.03;4941204;29;1902;-50
2022/03/12 03:38:45;;;;;;;;;;;;;;;18.08;31.78;101921.91;4939728;29;795;-49
2022/03/12 03:41:11;;;;;;;;;;;;;;;17.49;32.63;101924.34;4939680;28;825;-49
2022/03/12 03:43:36;;;;;;;;;;;;;;;16.97;33.83;101928.19;4939332;29;830;-47
2022/03/12 03:46:02;;;;;;;;;;;;;;;16.58;34.30;101931.59;4944620;29;839;-52
2022/03/12 03:48:27;;;;;;;;;;;;;;;16.50;34.65;101918.25;4939276;29;937;-49
2022/03/12 03:50:53;;;;;;;;;;;;;;;16.66;34.29;101919.34;4943883;29;894;-48
2022/03/12 03:53:22;;;;;;;;;;;;;;;17.22;33.25;101914.03;4939597;29;935;-45
2022/03/12 03:55:48;;;;;;;;;;;;;;;17.53;32.73;101925.50;4951667;28;2029;-51
2022/03/12 03:58:14;;;;;;;;;;;;;;;17.09;33.56;101916.03;4958095;29;898;-50
2022/03/12 04:00:40;;;;;;;;;;;;;;;16.50;34.45;101929.22;4957733;28;811;-51
2022/03/12 04:03:05;;;;;;;;;;;;;;;16.38;34.71;101926.50;4941365;28;845;-49
2022/03/12 04:05:32;;;;;;;;;;;;;;;17.08;33.40;101922.63;4938830;29;826;-46
2022/03/12 04:07:59;;;;;;;;;;;;;;;17.19;33.32;101923.59;4939112;29;886;-52
2022/03/12 04:10:26;;;;;;;;;;;;;;;16.34;34.64;101934.41;4939401;29;834;-51
2022/03/12 04:12:52;;;;;;;;;;;;;;;16.37;34.98;101941.34;4939490;29;818;-48
2022/03/12 04:15:17;;;;;;;;;;;;;;;18.62;30.81;101947.88;4943577;29;772;-51
2022/03/12 04:17:44;;;;;;;;;;;;;;;18.97;30.29;101938.31;4940881;29;1997;-48
2022/03/12 04:20:09;;;;;;;;;;;;;;;19.38;29.48;101948.88;4939471;29;798;-47
2022/03/12 04:22:38;;;;;;;;;;;;;;;19.29;29.44;101941.09;4938094;29;791;-48
2022/03/12 04:25:04;;;;;;;;;;;;;;;18.12;31.63;101938.75;4940630;29;883;-53
2022/03/12 04:27:30;;;;;;;;;;;;;;;17.45;32.82;101946.84;4942672;29;743;-49
2022/03/12 04:29:56;;;;;;;;;;;;;;;17.02;33.35;101951.09;4942492;29;831;-52
2022/03/12 04:32:22;;;;;;;;;;;;;;;16.68;33.99;101933.69;4949217;29;1509;-50
2022/03/12 04:34:47;;;;;;;;;;;;;;;16.71;34.08;101941.44;4942866;29;1067;-54
2022/03/12 04:37:13;;;;;;;;;;;;;;;17.35;33.16;101951.34;4942939;29;1988;-54
2022/03/12 04:39:39;;;;;;;;;;;;;;;17.37;32.76;101944.53;4942883;29;807;-54
2022/03/12 04:42:05;;;;;;;;;;;;;;;16.90;33.54;101928.34;4946022;29;802;-53
2022/03/12 04:44:30;;;;;;;;;;;;;;;16.43;34.54;101930.19;4942763;29;1836;-53
2022/03/12 04:46:56;;;;;;;;;;;;;;;16.39;34.56;101934.50;4946929;29;814;-52
2022/03/12 04:49:22;;;;;;;;;;;;;;;16.84;33.82;101934.81;4942997;29;755;-50
2022/03/12 04:51:50;;;;;;;;;;;;;;;17.00;33.38;101953.25;4942643;29;780;-53
2022/03/12 04:54:15;;;;;;;;;;;;;;;16.80;33.59;101959.16;4943160;29;859;-52
2022/03/12 04:56:41;;;;;;;;;;;;;;;16.62;33.84;101959.38;4941787;29;1918;-55
2022/03/12 04:59:06;;;;;;;;;;;;;;;16.46;33.49;101971.97;4942520;29;826;-52
2022/03/12 05:01:32;;;;;;;;;;;;;;;16.32;33.72;101968.69;4945010;29;851;-56
2022/03/12 05:03:57;;;;;;;;;;;;;;;16.70;33.04;101979.03;4944471;28;1567;-52
2022/03/12 05:06:23;;;;;;;;;;;;;;;17.13;32.08;101976.00;4945523;29;870;-54
2022/03/12 05:08:49;;;;;;;;;;;;;;;17.00;32.58;101975.25;4943153;29;764;-54
2022/03/12 05:11:14;;;;;;;;;;;;;;;16.38;33.40;101976.78;4957217;28;853;-55
2022/03/12 05:13:40;;;;;;;;;;;;;;;16.19;33.80;101989.00;4943169;28;830;-53
2022/03/12 05:16:06;;;;;;;;;;;;;;;16.08;33.87;102005.22;4947847;29;1985;-53
2022/03/12 05:18:36;;;;;;;;;;;;;;;16.58;33.04;102005.72;4944236;28;1156;-53
2022/03/12 05:21:01;;;;;;;;;;;;;;;16.96;32.55;102009.78;4942561;28;821;-54
2022/03/12 05:23:29;;;;;;;;;;;;;;;16.48;33.51;102009.09;4941844;29;815;-55
2022/03/12 05:25:55;;;;;;;;;;;;;;;16.57;32.87;102009.53;4941641;29;846;-54
2022/03/12 05:28:22;;;;;;;;;;;;;;;16.54;33.11;102010.03;4941982;29;798;-54
2022/03/12 05:30:48;;;;;;;;;;;;;;;16.82;32.82;102011.16;4944959;29;815;-55
2022/03/12 05:33:14;;;;;;;;;;;;;;;17.25;32.06;101998.75;4943303;28;1403;-54
2022/03/12 05:35:42;;;;;;;;;;;;;;;16.79;32.55;102008.88;4941756;29;1985;-55
2022/03/12 05:38:08;;;;;;;;;;;;;;;16.21;33.70;102012.34;4943177;28;1282;-51
2022/03/12 05:40:38;;;;;;;;;;;;;;;16.07;34.01;102011.78;4941929;29;810;-51
2022/03/12 05:43:06;;;;;;;;;;;;;;;16.38;33.42;102009.72;4941807;29;823;-55
2022/03/12 05:45:31;;;;;;;;;;;;;;;17.07;32.43;102006.16;4948417;28;894;-52
2022/03/12 05:47:58;;;;;;;;;;;;;;;16.99;32.44;102014.78;4942508;28;866;-54
2022/03/12 05:50:23;;;;;;;;;;;;;;;16.31;33.72;102011.75;4941614;29;863;-53
2022/03/12 05:52:49;;;;;;;;;;;;;;;16.13;34.10;102015.50;4941433;29;870;-53
2022/03/12 05:55:18;;;;;;;;;;;;;;;16.12;34.06;102021.19;4941540;29;751;-54
2022/03/12 05:57:44;;;;;;;;;;;;;;;16.81;32.87;102024.03;4950246;29;1989;-52
2022/03/12 06:00:12;;;;;;;;;;;;;;;16.89;32.71;102028.34;4945446;29;925;-53
2022/03/12 06:02:49;;;;;;;;;;;;;;;16.20;33.91;102018.09;4942999;29;886;-53
2022/03/12 06:05:17;;;;;;;;;;;;;;;16.12;34.28;102027.53;4941301;29;799;-55
2022/03/12 06:07:46;;;;;;;;;;;;;;;18.40;30.30;102016.75;4940883;29;803;-55
2022/03/12 06:10:38;;;;;;;;;;;;;;;18.86;29.50;102027.47;4945728;29;834;-55
2022/03/12 06:13:05;;;;;;;;;;;;;;;19.78;27.93;102020.09;4952554;29;1306;-56
2022/03/12 06:15:39;;;;;;;;;;;;;;;19.54;28.39;102024.31;4957918;29;874;-55
2022/03/12 06:18:05;;;;;;;;;;;;;;;18.41;30.18;102016.50;4944547;28;1488;-55
2022/03/12 06:20:30;;;;;;;;;;;;;;;18.69;29.92;102025.66;4941221;29;940;-54
2022/03/12 06:22:56;;;;;;;;;;;;;;;18.45;30.40;102020.41;4955980;28;815;-55
2022/03/12 06:25:22;;;;;;;;;;;;;;;18.28;30.63;102014.09;4953193;29;897;-55
2022/03/12 06:27:53;;;;;;;;;;;;;;;17.84;31.31;102008.50;4954362;29;874;-56
2022/03/12 06:30:19;;;;;;;;;;;;;;;17.29;32.38;102008.16;4958855;28;746;-56
2022/03/12 06:32:44;;;;;;;;;;;;;;;17.01;32.65;102012.66;4944956;29;1043;-54
2022/03/12 06:35:11;;;;;;;;;;;;;;;17.41;32.28;102008.94;4948934;29;1256;-54
2022/03/12 06:37:36;;;;;;;;;;;;;;;18.26;30.96;102006.09;4940396;29;1907;-52
2022/03/12 06:40:02;;;;;;;;;;;;;;;18.78;29.95;102002.03;4940099;29;830;-55
2022/03/12 06:42:32;;;;;;;;;;;;;;;18.22;30.93;102004.94;4940536;29;832;-52
2022/03/12 06:44:57;;;;;;;;;;;;;;;17.57;31.95;101992.69;4940326;29;839;-55
2022/03/12 06:47:32;;;;;;;;;;;;;;;17.34;32.26;101994.50;4946305;28;1295;-55
2022/03/12 06:50:00;;;;;;;;;;;;;;;16.89;32.84;101998.13;4939877;29;1498;-52
2022/03/12 06:52:26;;;;;;;;;;;;;;;16.95;32.94;101990.81;4940762;29;759;-52
2022/03/12 06:54:54;;;;;;;;;;;;;;;17.65;31.78;102006.00;4939738;29;810;-54
2022/03/12 06:57:20;;;;;;;;;;;;;;;18.20;31.01;102006.28;4940263;29;1975;-55
2022/03/12 06:59:45;;;;;;;;;;;;;;;17.88;31.37;102009.66;4940616;29;888;-55
2022/03/12 07:02:11;;;;;;;;;;;;;;;17.57;31.85;102020.19;4949780;28;1279;-55
2022/03/12 07:04:36;;;;;;;;;;;;;;;17.12;32.77;102007.31;4958699;28;874;-55
2022/03/12 07:07:02;;;;;;;;;;;;;;;16.93;32.85;102005.63;4958661;28;930;-56
2022/03/12 07:09:28;;;;;;;;;;;;;;;17.43;32.10;102003.19;4958526;28;774;-55
2022/03/12 07:11:56;;;;;;;;;;;;;;;17.92;31.19;101999.84;4956581;28;1232;-55
2022/03/12 07:14:21;;;;;;;;;;;;;;;17.64;31.95;101998.84;4941660;29;886;-54
2022/03/12 07:16:48;;;;;;;;;;;;;;;17.49;32.11;101991.19;4945786;29;1914;-54
2022/03/12 07:19:14;;;;;;;;;;;;;;;17.39;32.10;101980.88;4946430;29;854;-54
2022/03/12 07:21:40;;;;;;;;;;;;;;;17.01;32.78;101979.66;4943643;28;850;-56
2022/03/12 07:24:05;;;;;;;;;;;;;;;17.04;32.91;101990.16;4946447;28;841;-56
2022/03/12 07:26:31;;;;;;;;;;;;;;;17.86;31.50;101995.34;4951934;28;818;-57
2022/03/12 07:28:56;;;;;;;;;;;;;;;17.82;31.59;101999.66;4944891;28;1220;-57
2022/03/12 07:31:22;;;;;;;;;;;;;;;17.52;31.79;101998.13;4943021;29;851;-56
2022/03/12 07:33:47;;;;;;;;;;;;;;;17.28;32.25;101995.53;4939794;29;1615;-57
2022/03/12 07:36:16;;;;;;;;;;;;;;;17.28;32.50;102001.84;4939732;29;1902;-56
2022/03/12 07:38:41;;;;;;;;;;;;;;;17.35;32.12;102007.19;4941452;29;871;-57
2022/03/12 07:41:07;;;;;;;;;;;;;;;17.45;32.02;102007.34;4948482;29;1097;-56
2022/03/12 07:43:32;;;;;;;;;;;;;;;17.45;32.13;102001.84;4939246;29;815;-59
2022/03/12 07:45:58;;;;;;;;;;;;;;;17.51;31.72;101994.50;4945941;28;1228;-60
2022/03/12 07:48:23;;;;;;;;;;;;;;;17.81;31.56;102003.50;4945998;28;1401;-57
2022/03/12 07:50:49;;;;;;;;;;;;;;;18.00;30.94;101999.41;4950784;29;846;-56
2022/03/12 07:53:14;;;;;;;;;;;;;;;17.72;31.67;102000.34;4957842;29;723;-57
2022/03/12 07:55:40;;;;;;;;;;;;;;;17.28;32.12;101984.53;4957642;29;751;-56
2022/03/12 07:58:05;;;;;;;;;;;;;;;17.03;32.58;101993.97;4958136;28;883;-56
2022/03/12 08:00:31;;;;;;;;;;;;;;;17.53;32.02;102002.50;4956901;28;926;-56
2022/03/12 08:02:57;;;;;;;;;;;;;;;18.04;31.01;102003.31;4947617;29;856;-55
2022/03/12 08:05:25;;;;;;;;;;;;;;;17.36;32.10;101997.00;4944977;29;839;-55
2022/03/12 08:07:54;;;;;;;;;;;;;;;16.82;32.85;101986.41;4943375;29;837;-55
2022/03/12 08:10:20;;;;;;;;;;;;;;;16.43;33.78;101992.50;4943447;28;997;-56
2022/03/12 08:12:46;;;;;;;;;;;;;;;16.56;33.34;101983.16;4943549;29;990;-55
2022/03/12 08:15:12;;;;;;;;;;;;;;;17.18;32.53;102001.69;4948583;29;801;-56
2022/03/12 08:17:37;;;;;;;;;;;;;;;16.77;33.08;102000.88;4952678;29;1898;-55
2022/03/12 08:20:05;;;;;;;;;;;;;;;16.47;33.36;102001.09;4944280;29;1070;-55
2022/03/12 08:22:30;;;;;;;;;;;;;;;16.22;33.77;102005.78;4951529;28;1433;-55
2022/03/12 08:24:56;;;;;;;;;;;;;;;16.84;33.10;102022.72;4948325;28;1290;-56
2022/03/12 08:27:21;;;;;;;;;;;;;;;16.86;32.67;102020.56;4961560;29;787;-56
2022/03/12 08:29:46;;;;;;;;;;;;;;;16.29;33.54;102007.59;4955267;28;803;-57
2022/03/12 08:32:12;;;;;;;;;;;;;;;17.16;32.44;102012.06;4945799;28;1215;-53
2022/03/12 08:34:37;;;;;;;;;;;;;;;19.25;28.95;102022.69;4942687;29;1208;-56
2022/03/12 08:37:03;;;;;;;;;;;;;;;19.04;29.08;102005.13;4942599;29;2023;-57
2022/03/12 08:39:29;;;;;;;;;;;;;;;20.06;27.44;102008.97;4942487;29;813;-57
2022/03/12 08:41:54;;;;;;;;;;;;;;;19.48;28.25;102012.41;4945013;29;878;-57
2022/03/12 08:44:20;;;;;;;;;;;;;;;18.21;30.35;102006.03;4944543;28;763;-55
2022/03/12 08:46:46;;;;;;;;;;;;;;;17.56;31.35;102007.53;4949599;29;944;-56
2022/03/12 08:49:13;;;;;;;;;;;;;;;17.16;32.23;102005.75;4951903;29;1154;-55
2022/03/12 08:51:39;;;;;;;;;;;;;;;16.61;33.09;102002.50;4940642;29;783;-56
2022/03/12 08:54:05;;;;;;;;;;;;;;;16.66;33.12;101999.84;4949377;28;1282;-56
2022/03/12 08:56:31;;;;;;;;;;;;;;;17.10;32.09;101994.66;4942770;28;1914;-56
2022/03/12 08:58:57;;;;;;;;;;;;;;;17.39;31.92;101991.00;4940714;28;1567;-55
2022/03/12 09:01:22;;;;;;;;;;;;;;;16.75;32.70;101997.53;4953185;29;925;-55
2022/03/12 09:03:48;;;;;;;;;;;;;;;16.45;33.18;102001.31;4941015;29;1364;-55
2022/03/12 09:06:14;;;;;;;;;;;;;;;16.47;33.29;102012.09;4946519;29;814;-55
2022/03/12 09:08:39;;;;;;;;;;;;;;;17.01;32.43;102017.28;4951055;28;1702;-54
2022/03/12 09:11:05;;;;;;;;;;;;;;;17.14;31.77;102024.38;4946188;29;1639;-56
2022/03/12 09:13:30;;;;;;;;;;;;;;;16.67;32.72;102012.50;4946825;28;1456;-53
2022/03/12 09:15:56;;;;;;;;;;;;;;;16.14;33.52;102019.88;4945324;29;1902;-54
2022/03/12 09:18:23;;;;;;;;;;;;;;;17.42;31.79;102016.09;4941215;29;846;-53
2022/03/12 09:20:48;;;;;;;;;;;;;;;19.46;28.17;102029.22;4941946;29;764;-53
2022/03/12 09:23:14;;;;;;;;;;;;;;;19.19;28.46;102028.41;4953693;28;1054;-55
2022/03/12 09:25:40;;;;;;;;;;;;;;;19.80;27.52;102022.63;4957163;28;1169;-54
2022/03/12 09:28:06;;;;;;;;;;;;;;;18.94;28.73;102027.03;4948607;28;1545;-54
2022/03/12 09:30:32;;;;;;;;;;;;;;;17.75;30.66;102044.72;4947540;29;889;-54
2022/03/12 09:32:57;;;;;;;;;;;;;;;17.24;31.63;102022.66;4945226;29;803;-53
2022/03/12 09:35:24;;;;;;;;;;;;;;;16.74;32.81;102035.16;4943023;28;1065;-54
2022/03/12 09:37:49;;;;;;;;;;;;;;;16.43;33.20;102041.94;4941633;28;1914;-54
2022/03/12 09:40:15;;;;;;;;;;;;;;;16.74;32.78;102048.88;4949353;28;1220;-54
2022/03/12 09:42:41;;;;;;;;;;;;;;;17.43;31.17;102044.41;4948343;29;792;-53
2022/03/12 09:45:07;;;;;;;;;;;;;;;17.10;32.01;102038.63;4941526;28;784;-53
2022/03/12 09:47:32;;;;;;;;;;;;;;;16.50;33.08;102063.75;4946885;29;1092;-55
2022/03/12 09:49:58;;;;;;;;;;;;;;;16.33;33.11;102061.75;4940193;29;839;-55
2022/03/12 09:52:23;;;;;;;;;;;;;;;16.49;33.13;102060.16;4956393;28;1082;-55
2022/03/12 09:54:49;;;;;;;;;;;;;;;17.20;31.87;102053.66;4941968;28;1405;-55
2022/03/12 09:57:15;;;;;;;;;;;;;;;16.99;32.03;102046.94;4945360;28;2009;-55
2022/03/12 09:59:42;;;;;;;;;;;;;;;16.53;32.89;102050.38;4949278;29;806;-55
2022/03/12 10:02:10;;;;;;;;;;;;;;;16.25;33.13;102065.69;4945333;29;882;-52
2022/03/12 10:04:38;;;;;;;;;;;;;;;16.20;33.32;102068.34;4944013;28;1235;-55
2022/03/12 10:07:06;;;;;;;;;;;;;;;16.37;33.15;102068.44;4945490;28;917;-55
2022/03/12 10:09:32;;;;;;;;;;;;;;;16.95;32.13;102068.56;4941158;29;826;-56
2022/03/12 10:11:58;;;;;;;;;;;;;;;16.84;32.34;102055.66;4939850;29;937;-56
2022/03/12 10:14:24;;;;;;;;;;;;;;;16.52;32.70;102065.19;4941256;29;897;-56
2022/03/12 10:16:50;;;;;;;;;;;;;;;16.23;33.09;102062.34;4942689;29;1942;-55
2022/03/12 10:19:15;;;;;;;;;;;;;;;16.97;32.07;102071.91;4939656;29;783;-57
2022/03/12 10:21:45;;;;;;;;;;;;;;;19.05;28.71;102077.63;4939549;29;815;-57
2022/03/12 10:24:11;;;;;;;;;;;;;;;18.92;28.64;102071.41;4942709;29;826;-57
2022/03/12 10:26:37;;;;;;;;;;;;;;;19.51;28.00;102064.28;4940250;29;799;-56
2022/03/12 10:29:03;;;;;;;;;;;;;;;18.90;28.90;102058.97;4946173;28;1584;-56
2022/03/12 10:31:28;;;;;;;;;;;;;;;17.66;30.70;102056.38;4949554;29;897;-56
2022/03/12 10:34:13;;;;;;;;;;;;;;;17.10;31.79;102060.63;4946477;28;1413;-57
2022/03/12 10:36:41;;;;;;;;;;;;;;;16.74;32.30;102054.38;4958188;28;1969;-56
2022/03/12 10:39:07;;;;;;;;;;;;;;;16.74;32.69;102048.88;4943063;28;795;-56
2022/03/12 10:41:32;;;;;;;;;;;;;;;17.30;31.39;102042.00;4948977;29;883;-56
2022/03/12 10:43:58;;;;;;;;;;;;;;;17.64;31.00;102042.03;4957758;29;848;-56
2022/03/12 10:46:25;;;;;;;;;;;;;;;17.17;31.64;102045.91;4955717;28;784;-55
2022/03/12 10:48:57;;;;;;;;;;;;;;;16.53;32.89;102046.81;4939108;29;735;-56
2022/03/12 10:51:26;;;;;;;;;;;;;;;16.24;33.29;102047.56;4942032;28;969;-56
2022/03/12 10:54:20;;;;;;;;;;;;;;;16.45;33.08;102058.16;4939912;29;818;-56
2022/03/12 10:56:49;;;;;;;;;;;;;;;17.35;31.56;102051.19;4949480;29;1919;-56
2022/03/12 10:59:32;;;;;;;;;;;;;;;17.50;31.15;102045.13;4956934;28;865;-56
2022/03/12 11:02:00;;;;;;;;;;;;;;;16.79;32.13;102047.31;4950751;28;845;-56
2022/03/12 11:04:26;;;;;;;;;;;;;;;16.39;33.13;102047.06;4942991;29;821;-56
2022/03/12 11:06:54;;;;;;;;;;;;;;;17.39;31.34;102024.00;4939006;29;732;-53
2022/03/12 11:09:35;;;;;;;;;;;;;;;19.34;28.15;102041.53;4950800;28;1149;-54
2022/03/12 11:12:01;;;;;;;;;;;;;;;19.18;28.42;102023.97;4944073;28;1208;-55
2022/03/12 11:14:28;;;;;;;;;;;;;;;19.67;27.83;102041.25;4947999;28;1425;-55
2022/03/12 11:16:54;;;;;;;;;;;;;;;18.50;29.35;102033.41;4949222;29;1985;-55
2022/03/12 11:19:37;;;;;;;;;;;;;;;17.70;30.90;102030.88;4941478;28;839;-54
2022/03/12 11:22:12;;;;;;;;;;;;;;;17.15;31.76;102037.88;4938975;29;806;-56
2022/03/12 11:24:48;;;;;;;;;;;;;;;16.73;32.69;102039.00;4951447;29;906;-56
2022/03/12 11:27:14;;;;;;;;;;;;;;;16.67;32.79;102026.22;4942702;29;955;-56
2022/03/12 11:29:40;;;;;;;;;;;;;;;17.43;31.35;102023.28;4946430;28;1010;-55
2022/03/12 11:32:09;;;;;;;;;;;;;;;17.74;30.96;102021.03;4945623;29;834;-55
2022/03/12 11:34:38;;;;;;;;;;;;;;;17.02;31.85;102025.28;4939104;29;1008;-55
2022/03/12 11:37:21;;;;;;;;;;;;;;;16.35;33.07;102032.13;4938013;29;1962;-56
2022/03/12 11:39:51;;;;;;;;;;;;;;;16.45;33.22;102041.69;4953939;29;806;-55
2022/03/12 11:42:23;;;;;;;;;;;;;;;16.65;32.67;102033.03;4940936;28;894;-55
2022/03/12 11:44:50;;;;;;;;;;;;;;;17.23;31.56;102020.97;4953358;28;1113;-56
2022/03/12 11:47:16;;;;;;;;;;;;;;;17.40;31.18;102034.78;4956034;28;1205;-55
2022/03/12 11:49:41;;;;;;;;;;;;;;;16.84;32.33;102036.44;4954958;28;1275;-52
2022/03/12 11:52:07;;;;;;;;;;;;;;;16.45;33.08;102036.19;4959805;28;1180;-54
2022/03/12 11:54:35;;;;;;;;;;;;;;;16.29;33.33;102038.59;4957695;28;1167;-55
2022/03/12 11:57:01;;;;;;;;;;;;;;;17.23;31.97;102042.16;4951456;28;1907;-54
2022/03/12 11:59:26;;;;;;;;;;;;;;;17.42;31.34;102031.78;4956712;28;1224;-53
2022/03/12 12:02:02;;;;;;;;;;;;;;;16.90;31.93;102035.47;4949657;28;1184;-54
2022/03/12 12:04:31;;;;;;;;;;;;;;;16.37;33.13;102040.16;4953211;28;1413;-53
2022/03/12 12:06:57;;;;;;;;;;;;;;;16.35;33.19;102037.63;4943358;28;1568;-53
2022/03/12 12:09:22;;;;;;;;;;;;;;;16.96;32.07;102034.53;4951641;28;1082;-53
2022/03/12 12:11:48;;;;;;;;;;;;;;;17.26;31.48;102041.66;4951409;28;984;-55
2022/03/12 12:14:14;;;;;;;;;;;;;;;17.31;31.73;102041.75;4944455;28;929;-50
2022/03/12 12:16:42;;;;;;;;;;;;;;;17.28;31.53;102036.75;4946094;28;1983;-53
2022/03/12 12:19:09;;;;;;;;;;;;;;;16.89;32.16;102036.59;4946859;28;783;-57
2022/03/12 12:21:35;;;;;;;;;;;;;;;16.82;32.06;102019.38;4940014;28;995;-56
2022/03/12 12:24:19;;;;;;;;;;;;;;;16.68;32.66;102033.38;4945422;28;994;-53
2022/03/12 12:26:58;;;;;;;;;;;;;;;16.87;32.32;102036.81;4950162;29;1286;-53
2022/03/12 12:29:36;;;;;;;;;;;;;;;17.56;30.83;102032.28;4944110;28;1008;-56
2022/03/12 12:32:04;;;;;;;;;;;;;;;17.85;30.74;102038.53;4942889;28;1166;-56
2022/03/12 12:34:30;;;;;;;;;;;;;;;16.69;32.54;102043.31;4951711;28;1117;-55
2022/03/12 12:36:59;;;;;;;;;;;;;;;16.65;32.73;102020.16;4956755;28;1927;-56
2022/03/12 12:39:25;;;;;;;;;;;;;;;16.71;32.67;102034.81;4956519;28;1263;-55
2022/03/12 12:41:56;;;;;;;;;;;;;;;16.92;32.33;102030.59;4938301;29;825;-57
2022/03/12 12:44:39;;;;;;;;;;;;;;;17.19;31.74;102027.25;4945097;28;947;-55
2022/03/12 12:47:05;;;;;;;;;;;;;;;17.53;30.96;102030.00;4956381;28;1267;-54
2022/03/12 12:49:37;;;;;;;;;;;;;;;17.87;30.76;102028.09;4959771;28;1197;-55
2022/03/12 12:52:03;;;;;;;;;;;;;;;17.81;30.82;102036.50;4959701;28;925;-55